Time;durP1;ratioP1;P1;durP2;ratioP2;P2;SDS_P1;SDS_P2;PMS_P1;PMS_P2;Temp;Humidity;BMP_temperature;BMP_pressure;BME280_temperature;BME280_humidity;BME280_pressure;Samples;Min_cycle;Max_cycle;Signal;HPM_P1;HPM_P2
2022/12/01 00:00:54;;;;;;;;;;;19.00;43.50;;;;;;5086276;28;19919;-63
2022/12/01 00:03:20;;;;;;;;;;;19.00;43.50;;;;;;5091867;28;19920;-65
2022/12/01 00:05:47;;;;;;;;;;;19.00;43.50;;;;;;5105607;28;19932;-64
2022/12/01 00:08:14;;;;;;;;;;;19.00;43.50;;;;;;5090568;28;20157;-63
2022/12/01 00:10:42;;;;;;;;;;;19.00;43.50;;;;;;5105111;28;19941;-64
2022/12/01 00:13:10;;;;;;;;;;;19.00;43.50;;;;;;5091424;28;20378;-64
2022/12/01 00:15:37;;;;;;;;;;;19.00;43.50;;;;;;5091459;28;19920;-64
2022/12/01 00:18:04;;;;;;;;;;;19.00;43.50;;;;;;5092300;28;19920;-68
2022/12/01 00:20:32;;;;;;;;;;;19.00;43.50;;;;;;5085137;28;20361;-62
2022/12/01 00:22:59;;;;;;;;;;;19.00;43.50;;;;;;5091406;28;19924;-65
2022/12/01 00:25:26;;;;;;;;;;;19.00;43.60;;;;;;5090318;28;20014;-64
2022/12/01 00:27:52;;;;;;;;;;;19.00;43.60;;;;;;5091500;28;20257;-64
2022/12/01 00:30:21;;;;;;;;;;;19.00;43.60;;;;;;5088352;28;19939;-65
2022/12/01 00:32:48;;;;;;;;;;;19.00;43.60;;;;;;5090340;28;19920;-64
2022/12/01 00:35:14;;;;;;;;;;;19.00;43.50;;;;;;5091417;28;19920;-63
2022/12/01 00:37:41;;;;;;;;;;;19.00;43.60;;;;;;5091662;28;19939;-65
2022/12/01 00:40:08;;;;;;;;;;;19.00;43.60;;;;;;5107685;28;19926;-63
2022/12/01 00:42:35;;;;;;;;;;;19.00;43.60;;;;;;5091517;28;19920;-63
2022/12/01 00:45:02;;;;;;;;;;;19.00;43.70;;;;;;5088052;28;19920;-63
2022/12/01 00:47:31;;;;;;;;;;;19.00;43.60;;;;;;5088713;28;19920;-62
2022/12/01 00:49:57;;;;;;;;;;;19.00;43.70;;;;;;5091064;28;19920;-62
2022/12/01 00:52:24;;;;;;;;;;;19.00;43.70;;;;;;5088404;28;19926;-65
2022/12/01 00:54:51;;;;;;;;;;;19.00;43.70;;;;;;5091966;28;19927;-63
2022/12/01 00:57:18;;;;;;;;;;;19.00;43.70;;;;;;5106245;28;19924;-63
2022/12/01 00:59:44;;;;;;;;;;;19.00;43.70;;;;;;5089791;28;19927;-64
2022/12/01 01:02:11;;;;;;;;;;;19.00;43.70;;;;;;5091017;28;19974;-63
2022/12/01 01:04:39;;;;;;;;;;;19.00;43.70;;;;;;5089897;28;19920;-67
2022/12/01 01:07:06;;;;;;;;;;;19.00;43.70;;;;;;5090616;28;19920;-66
2022/12/01 01:09:33;;;;;;;;;;;19.00;43.70;;;;;;5090146;28;20381;-64
2022/12/01 01:12:00;;;;;;;;;;;19.00;43.70;;;;;;5091481;28;19919;-67
2022/12/01 01:14:26;;;;;;;;;;;19.00;43.70;;;;;;5090209;28;19926;-67
2022/12/01 01:16:55;;;;;;;;;;;19.00;43.70;;;;;;5090767;28;19934;-63
2022/12/01 01:19:22;;;;;;;;;;;19.00;43.80;;;;;;5089692;28;19932;-63
2022/12/01 01:21:51;;;;;;;;;;;19.00;43.80;;;;;;5088716;28;19973;-64
2022/12/01 01:24:17;;;;;;;;;;;19.00;43.70;;;;;;5091893;28;19920;-65
2022/12/01 01:26:44;;;;;;;;;;;19.00;43.80;;;;;;5111639;28;19965;-63
2022/12/01 01:29:11;;;;;;;;;;;19.00;43.40;;;;;;5088434;28;19924;-62
2022/12/01 01:31:38;;;;;;;;;;;19.00;43.80;;;;;;5090955;28;19924;-62
2022/12/01 01:34:04;;;;;;;;;;;19.00;43.80;;;;;;5091332;28;19920;-62
2022/12/01 01:36:31;;;;;;;;;;;19.00;43.80;;;;;;5089497;28;19920;-63
2022/12/01 01:39:00;;;;;;;;;;;19.00;43.80;;;;;;5090556;28;19920;-65
2022/12/01 01:41:27;;;;;;;;;;;19.00;43.80;;;;;;5106885;28;19950;-64
2022/12/01 01:43:54;;;;;;;;;;;19.00;43.80;;;;;;5091239;28;19927;-63
2022/12/01 01:46:21;;;;;;;;;;;19.00;43.80;;;;;;5089240;28;19992;-65
2022/12/01 01:48:49;;;;;;;;;;;19.00;44.40;;;;;;5090727;28;19931;-64
2022/12/01 01:51:16;;;;;;;;;;;19.00;43.80;;;;;;5090828;28;19924;-63
2022/12/01 01:53:43;;;;;;;;;;;19.00;43.80;;;;;;5089065;28;19923;-64
2022/12/01 01:56:12;;;;;;;;;;;19.00;43.80;;;;;;5093968;28;19931;-62
2022/12/01 01:58:38;;;;;;;;;;;19.00;43.80;;;;;;5093807;28;19973;-62
2022/12/01 02:01:05;;;;;;;;;;;19.00;43.80;;;;;;5109601;28;19931;-66
2022/12/01 02:03:32;;;;;;;;;;;19.00;43.80;;;;;;5091681;28;19928;-64
2022/12/01 02:05:59;;;;;;;;;;;19.00;43.80;;;;;;5095345;28;20041;-63
2022/12/01 02:08:26;;;;;;;;;;;19.00;43.80;;;;;;5112960;28;19919;-64
2022/12/01 02:10:58;;;;;;;;;;;19.00;43.80;;;;;;5090045;28;19924;-63
2022/12/01 02:13:27;;;;;;;;;;;19.00;43.80;;;;;;5094367;28;19919;-63
2022/12/01 02:15:55;;;;;;;;;;;19.00;43.80;;;;;;5091534;28;19967;-64
2022/12/01 02:18:24;;;;;;;;;;;19.00;43.80;;;;;;5112624;28;19932;-64
2022/12/01 02:21:02;;;;;;;;;;;19.00;43.80;;;;;;5112264;28;19920;-64
2022/12/01 02:23:47;;;;;;;;;;;19.00;43.80;;;;;;5090468;28;19920;-63
2022/12/01 02:26:19;;;;;;;;;;;19.00;43.80;;;;;;5051128;28;20163;-63
2022/12/01 02:28:54;;;;;;;;;;;19.00;43.80;;;;;;5090432;28;19920;-64
2022/12/01 02:31:23;;;;;;;;;;;19.00;43.80;;;;;;5093319;28;19924;-63
2022/12/01 02:33:51;;;;;;;;;;;19.00;43.90;;;;;;5110302;28;19931;-63
2022/12/01 02:36:19;;;;;;;;;;;19.00;43.90;;;;;;5093221;28;19927;-63
2022/12/01 02:38:47;;;;;;;;;;;19.00;44.50;;;;;;5091517;28;19988;-63
2022/12/01 02:41:18;;;;;;;;;;;19.00;43.90;;;;;;5112211;28;20001;-63
2022/12/01 02:43:46;;;;;;;;;;;19.00;43.90;;;;;;5107833;28;19919;-64
2022/12/01 02:46:13;;;;;;;;;;;19.00;43.90;;;;;;5093756;28;20439;-63
2022/12/01 02:48:43;;;;;;;;;;;19.00;43.90;;;;;;5091772;28;19926;-64
2022/12/01 02:51:11;;;;;;;;;;;19.00;43.90;;;;;;5088956;28;19968;-64
2022/12/01 02:53:38;;;;;;;;;;;19.00;43.90;;;;;;5093713;28;19920;-63
2022/12/01 02:56:06;;;;;;;;;;;19.00;43.90;;;;;;5111416;28;20385;-66
2022/12/01 02:58:32;;;;;;;;;;;19.00;43.90;;;;;;5111306;28;20328;-65
2022/12/01 03:01:02;;;;;;;;;;;19.00;43.90;;;;;;5090466;28;19919;-64
2022/12/01 03:03:34;;;;;;;;;;;19.00;43.90;;;;;;5090686;28;19934;-64
2022/12/01 03:06:07;;;;;;;;;;;19.00;43.90;;;;;;5094171;28;19928;-64
2022/12/01 03:08:35;;;;;;;;;;;19.00;43.90;;;;;;5093419;28;19920;-65
2022/12/01 03:11:02;;;;;;;;;;;19.00;43.90;;;;;;5091601;28;19931;-63
2022/12/01 03:13:33;;;;;;;;;;;19.00;43.90;;;;;;5091104;28;19920;-64
2022/12/01 03:16:01;;;;;;;;;;;19.00;43.90;;;;;;5093750;28;19926;-64
2022/12/01 03:18:29;;;;;;;;;;;19.00;43.90;;;;;;5091078;28;19930;-65
2022/12/01 03:20:57;;;;;;;;;;;19.00;43.90;;;;;;5093617;27;19931;-64
2022/12/01 03:23:26;;;;;;;;;;;19.00;43.90;;;;;;5110027;27;19927;-64
2022/12/01 03:25:53;;;;;;;;;;;19.00;44.00;;;;;;5091274;28;19927;-63
2022/12/01 03:28:21;;;;;;;;;;;19.00;44.00;;;;;;5111718;28;19919;-64
2022/12/01 03:30:48;;;;;;;;;;;19.00;44.00;;;;;;5110229;28;19920;-63
2022/12/01 03:33:17;;;;;;;;;;;19.00;43.90;;;;;;5091995;28;19923;-64
2022/12/01 03:35:45;;;;;;;;;;;19.00;43.90;;;;;;5092932;28;20390;-64
2022/12/01 03:38:12;;;;;;;;;;;19.00;43.90;;;;;;5087359;28;19955;-63
2022/12/01 03:40:40;;;;;;;;;;;19.00;43.90;;;;;;5091752;28;20332;-64
2022/12/01 03:43:07;;;;;;;;;;;19.00;43.90;;;;;;5092944;28;19927;-63
2022/12/01 03:45:35;;;;;;;;;;;19.00;43.90;;;;;;5091514;28;19920;-64
2022/12/01 03:48:02;;;;;;;;;;;19.00;43.90;;;;;;5092786;28;19931;-63
2022/12/01 03:50:29;;;;;;;;;;;19.00;43.90;;;;;;5087710;28;19980;-64
2022/12/01 03:52:58;;;;;;;;;;;19.00;44.00;;;;;;5091614;28;19938;-66
2022/12/01 03:55:26;;;;;;;;;;;19.00;43.90;;;;;;5110959;28;19919;-67
2022/12/01 03:57:55;;;;;;;;;;;19.00;43.90;;;;;;5090081;28;20181;-64
2022/12/01 04:00:22;;;;;;;;;;;19.00;43.90;;;;;;5109340;28;19930;-64
2022/12/01 04:02:52;;;;;;;;;;;19.00;44.00;;;;;;5091832;28;19975;-64
2022/12/01 04:05:19;;;;;;;;;;;19.00;43.90;;;;;;5088332;28;19973;-63
2022/12/01 04:07:46;;;;;;;;;;;19.00;43.90;;;;;;5110435;28;19919;-63
2022/12/01 04:10:13;;;;;;;;;;;19.00;44.00;;;;;;5091606;28;19920;-68
2022/12/01 04:12:38;;;;;;;;;;;19.00;44.00;;;;;;5108613;28;19927;-64
2022/12/01 04:15:08;;;;;;;;;;;19.00;43.90;;;;;;5091608;28;19996;-63
2022/12/01 04:17:34;;;;;;;;;;;19.00;44.00;;;;;;5088331;28;19927;-63
2022/12/01 04:20:02;;;;;;;;;;;19.00;43.90;;;;;;5109996;28;19976;-66
2022/12/01 04:22:28;;;;;;;;;;;19.00;43.90;;;;;;5092010;28;19932;-64
2022/12/01 04:24:55;;;;;;;;;;;19.00;43.90;;;;;;5090766;28;19924;-65
2022/12/01 04:27:22;;;;;;;;;;;19.00;43.90;;;;;;5090512;28;19924;-65
2022/12/01 04:29:49;;;;;;;;;;;19.00;44.00;;;;;;5091436;28;19928;-64
2022/12/01 04:32:17;;;;;;;;;;;19.00;43.90;;;;;;5107425;28;19924;-65
2022/12/01 04:34:43;;;;;;;;;;;19.00;43.90;;;;;;5089109;28;19919;-65
2022/12/01 04:37:10;;;;;;;;;;;19.00;43.90;;;;;;5092011;28;19920;-64
2022/12/01 04:39:40;;;;;;;;;;;19.00;43.90;;;;;;5088763;28;20536;-62
2022/12/01 04:42:07;;;;;;;;;;;19.00;43.90;;;;;;5108466;28;19975;-62
2022/12/01 04:44:34;;;;;;;;;;;19.00;43.90;;;;;;5091660;28;19924;-64
2022/12/01 04:47:01;;;;;;;;;;;19.00;43.90;;;;;;5090290;28;19920;-63
2022/12/01 04:49:29;;;;;;;;;;;19.00;43.90;;;;;;5090114;28;19926;-66
2022/12/01 04:51:57;;;;;;;;;;;19.00;44.00;;;;;;5107985;28;19973;-63
2022/12/01 04:54:24;;;;;;;;;;;19.00;43.90;;;;;;5084987;28;19919;-64
2022/12/01 04:56:51;;;;;;;;;;;19.00;44.00;;;;;;5110394;28;19927;-66
2022/12/01 04:59:18;;;;;;;;;;;19.00;43.90;;;;;;5087546;28;19931;-62
2022/12/01 05:01:46;;;;;;;;;;;19.00;44.00;;;;;;5107754;28;19930;-64
2022/12/01 05:04:13;;;;;;;;;;;19.00;44.00;;;;;;5107485;28;19920;-64
2022/12/01 05:06:41;;;;;;;;;;;19.00;44.00;;;;;;5091812;28;20377;-64
2022/12/01 05:09:09;;;;;;;;;;;19.00;44.00;;;;;;5089740;28;19932;-63
2022/12/01 05:11:36;;;;;;;;;;;19.00;44.00;;;;;;5086598;28;19924;-63
2022/12/01 05:14:03;;;;;;;;;;;19.00;44.00;;;;;;5088292;28;19920;-63
2022/12/01 05:16:31;;;;;;;;;;;19.00;44.00;;;;;;5091350;28;19920;-67
2022/12/01 05:21:38;;;;;;;;;;;19.00;44.00;;;;;;5086729;28;19932;-66
2022/12/01 05:24:07;;;;;;;;;;;19.00;43.90;;;;;;5091340;28;19930;-62
2022/12/01 05:26:34;;;;;;;;;;;19.00;44.00;;;;;;5091812;28;19927;-64
2022/12/01 05:29:00;;;;;;;;;;;19.00;44.00;;;;;;5091228;28;19920;-63
2022/12/01 05:31:27;;;;;;;;;;;19.00;44.00;;;;;;5093636;27;19927;-64
2022/12/01 05:33:54;;;;;;;;;;;19.00;44.00;;;;;;5096237;28;20350;-64
2022/12/01 05:36:27;;;;;;;;;;;19.00;43.90;;;;;;5095772;28;19919;-64
2022/12/01 05:38:54;;;;;;;;;;;19.00;44.00;;;;;;5092144;28;19920;-65
2022/12/01 05:41:22;;;;;;;;;;;19.00;44.00;;;;;;5091587;28;19920;-64
2022/12/01 05:43:49;;;;;;;;;;;19.00;43.90;;;;;;5094041;28;20337;-64
2022/12/01 05:46:15;;;;;;;;;;;19.00;43.90;;;;;;5095006;28;19927;-67
2022/12/01 05:48:42;;;;;;;;;;;19.00;44.00;;;;;;5091689;28;19919;-63
2022/12/01 05:51:09;;;;;;;;;;;19.00;43.90;;;;;;5095315;28;19923;-64
2022/12/01 05:53:36;;;;;;;;;;;19.00;43.90;;;;;;5113443;28;20400;-63
2022/12/01 05:56:03;;;;;;;;;;;19.00;43.90;;;;;;5075478;28;19920;-66
2022/12/01 05:58:31;;;;;;;;;;;19.00;43.90;;;;;;5081013;28;19977;-63
2022/12/01 06:00:58;;;;;;;;;;;19.00;44.00;;;;;;5092617;28;19920;-63
2022/12/01 06:03:24;;;;;;;;;;;19.00;44.00;;;;;;5099333;28;19923;-64
2022/12/01 06:05:51;;;;;;;;;;;19.00;43.90;;;;;;5095383;28;19919;-63
2022/12/01 06:08:18;;;;;;;;;;;19.00;44.00;;;;;;5089089;28;19943;-65
2022/12/01 06:10:45;;;;;;;;;;;19.00;43.90;;;;;;5088303;28;19927;-63
2022/12/01 06:13:11;;;;;;;;;;;19.00;43.90;;;;;;5113145;28;19940;-65
2022/12/01 06:15:40;;;;;;;;;;;19.00;43.90;;;;;;5080407;28;19920;-63
2022/12/01 06:18:06;;;;;;;;;;;19.00;44.00;;;;;;5088732;28;19923;-61
2022/12/01 06:20:33;;;;;;;;;;;19.00;43.90;;;;;;5112082;28;19920;-63
2022/12/01 06:23:00;;;;;;;;;;;19.00;43.90;;;;;;5090619;28;19977;-60
2022/12/01 06:25:27;;;;;;;;;;;19.00;43.90;;;;;;5093164;28;19945;-63
2022/12/01 06:27:55;;;;;;;;;;;19.00;43.90;;;;;;5093955;28;19919;-62
2022/12/01 06:30:22;;;;;;;;;;;19.00;44.00;;;;;;5092302;28;19919;-61
2022/12/01 06:32:50;;;;;;;;;;;19.00;43.90;;;;;;5110267;28;19973;-61
2022/12/01 06:35:17;;;;;;;;;;;19.00;43.90;;;;;;5092450;28;19923;-62
2022/12/01 06:37:43;;;;;;;;;;;19.00;44.30;;;;;;5078558;28;19924;-61
2022/12/01 06:40:11;;;;;;;;;;;19.00;43.90;;;;;;5088365;28;19931;-62
2022/12/01 06:42:37;;;;;;;;;;;19.00;44.00;;;;;;5090189;28;19919;-64
2022/12/01 06:45:05;;;;;;;;;;;19.00;43.90;;;;;;5086574;28;19927;-63
2022/12/01 06:47:32;;;;;;;;;;;19.00;44.00;;;;;;5087383;27;20400;-63
2022/12/01 06:50:00;;;;;;;;;;;19.00;43.90;;;;;;5083716;28;19996;-63
2022/12/01 06:52:27;;;;;;;;;;;19.00;44.00;;;;;;5088228;28;19931;-64
2022/12/01 06:54:54;;;;;;;;;;;19.00;44.00;;;;;;5100247;28;20320;-64
2022/12/01 06:57:21;;;;;;;;;;;19.00;44.00;;;;;;5085935;28;19920;-63
2022/12/01 06:59:48;;;;;;;;;;;19.00;44.10;;;;;;5101955;27;19954;-65
2022/12/01 07:02:15;;;;;;;;;;;19.00;44.10;;;;;;5087551;28;19927;-63
2022/12/01 07:04:42;;;;;;;;;;;19.00;44.10;;;;;;5081307;28;19991;-64
2022/12/01 07:07:11;;;;;;;;;;;19.00;44.10;;;;;;5100917;28;19920;-64
2022/12/01 07:09:37;;;;;;;;;;;19.00;44.10;;;;;;5099085;28;19924;-63
2022/12/01 07:12:04;;;;;;;;;;;19.00;44.10;;;;;;5084398;28;19920;-63
2022/12/01 07:14:31;;;;;;;;;;;19.00;44.10;;;;;;5080006;28;19935;-62
2022/12/01 07:16:58;;;;;;;;;;;19.00;44.10;;;;;;5103188;28;19946;-63
2022/12/01 07:19:24;;;;;;;;;;;19.00;44.10;;;;;;5081123;28;19920;-64
2022/12/01 07:21:51;;;;;;;;;;;19.00;44.20;;;;;;5081102;28;19931;-64
2022/12/01 07:24:19;;;;;;;;;;;19.00;44.10;;;;;;5082565;28;19920;-64
2022/12/01 07:26:47;;;;;;;;;;;19.00;44.20;;;;;;5085228;28;19927;-64
2022/12/01 07:29:13;;;;;;;;;;;19.00;44.20;;;;;;5083646;28;19965;-63
2022/12/01 07:31:40;;;;;;;;;;;19.00;44.20;;;;;;5089129;28;19974;-65
2022/12/01 07:34:07;;;;;;;;;;;19.00;44.20;;;;;;5080869;28;19923;-64
2022/12/01 07:36:33;;;;;;;;;;;19.00;44.20;;;;;;5101105;28;19943;-63
2022/12/01 07:39:00;;;;;;;;;;;19.00;44.20;;;;;;5080941;28;19973;-64
2022/12/01 07:41:29;;;;;;;;;;;19.00;44.20;;;;;;5099399;28;19924;-63
2022/12/01 07:43:55;;;;;;;;;;;19.00;44.20;;;;;;5079043;28;19920;-61
2022/12/01 07:46:22;;;;;;;;;;;19.00;44.20;;;;;;5078892;28;20434;-62
2022/12/01 07:48:49;;;;;;;;;;;19.00;44.20;;;;;;5083486;28;19919;-63
2022/12/01 07:51:16;;;;;;;;;;;19.00;44.20;;;;;;5080588;28;19920;-63
2022/12/01 07:53:43;;;;;;;;;;;19.00;44.20;;;;;;5081121;28;19990;-64
2022/12/01 07:56:10;;;;;;;;;;;19.00;44.30;;;;;;5105285;28;19927;-64
2022/12/01 07:58:38;;;;;;;;;;;19.00;44.30;;;;;;5082637;28;19924;-63
2022/12/01 08:01:08;;;;;;;;;;;19.00;44.20;;;;;;5081089;28;19927;-64
2022/12/01 08:03:34;;;;;;;;;;;19.00;44.20;;;;;;5071066;28;20036;-63
2022/12/01 08:06:01;;;;;;;;;;;19.00;44.20;;;;;;5083075;28;20354;-64
2022/12/01 08:08:28;;;;;;;;;;;19.00;44.20;;;;;;5089189;28;19927;-63
2022/12/01 08:10:55;;;;;;;;;;;19.00;44.20;;;;;;5083114;28;19920;-63
2022/12/01 08:13:22;;;;;;;;;;;19.00;44.20;;;;;;5080860;28;19990;-63
2022/12/01 08:15:50;;;;;;;;;;;19.00;44.20;;;;;;5110723;28;19920;-62
2022/12/01 08:18:17;;;;;;;;;;;19.00;44.20;;;;;;5103835;28;19946;-64
2022/12/01 08:20:44;;;;;;;;;;;19.00;44.20;;;;;;5103977;28;19935;-64
2022/12/01 08:23:11;;;;;;;;;;;19.00;44.20;;;;;;5098005;28;19930;-64
2022/12/01 08:25:37;;;;;;;;;;;19.00;44.20;;;;;;5086257;28;19924;-66
2022/12/01 08:28:04;;;;;;;;;;;19.00;44.20;;;;;;5089684;28;20372;-63
2022/12/01 08:30:31;;;;;;;;;;;19.00;44.20;;;;;;5086350;28;19930;-63
2022/12/01 08:32:59;;;;;;;;;;;19.00;44.30;;;;;;5092229;28;19985;-65
2022/12/01 08:35:26;;;;;;;;;;;19.00;44.20;;;;;;5108856;28;19931;-63
2022/12/01 08:37:53;;;;;;;;;;;19.00;44.20;;;;;;5082196;28;19924;-66
2022/12/01 08:40:20;;;;;;;;;;;19.00;44.20;;;;;;5094037;28;19920;-64
2022/12/01 08:42:46;;;;;;;;;;;19.00;44.20;;;;;;5082744;28;19923;-64
2022/12/01 08:45:13;;;;;;;;;;;19.00;44.20;;;;;;5085692;28;19920;-65
2022/12/01 08:47:40;;;;;;;;;;;19.00;44.20;;;;;;5082259;28;19988;-64
2022/12/01 08:50:09;;;;;;;;;;;19.00;44.30;;;;;;5084727;28;19927;-63
2022/12/01 08:52:36;;;;;;;;;;;19.00;44.30;;;;;;5105494;28;19920;-63
2022/12/01 08:55:04;;;;;;;;;;;19.00;44.30;;;;;;5088761;28;19920;-64
2022/12/01 08:57:30;;;;;;;;;;;19.00;44.30;;;;;;5088916;28;20318;-64
2022/12/01 08:59:57;;;;;;;;;;;19.00;44.30;;;;;;5077913;28;19935;-64
2022/12/01 09:02:24;;;;;;;;;;;19.00;44.30;;;;;;5102879;28;19920;-64
2022/12/01 09:04:51;;;;;;;;;;;19.00;44.30;;;;;;5094524;28;19969;-64
2022/12/01 09:07:19;;;;;;;;;;;19.00;44.30;;;;;;5088517;28;19928;-64
2022/12/01 09:09:46;;;;;;;;;;;19.00;44.30;;;;;;5087853;28;19923;-63
2022/12/01 09:12:13;;;;;;;;;;;19.00;44.30;;;;;;5108722;28;19924;-64
2022/12/01 09:14:40;;;;;;;;;;;19.10;44.40;;;;;;5077990;28;19981;-63
2022/12/01 09:17:07;;;;;;;;;;;19.00;44.30;;;;;;5082773;28;19928;-65
2022/12/01 09:19:34;;;;;;;;;;;19.00;44.30;;;;;;5090145;28;19920;-63
2022/12/01 09:22:01;;;;;;;;;;;19.10;44.40;;;;;;5090857;28;19977;-63
2022/12/01 09:24:29;;;;;;;;;;;19.10;44.40;;;;;;5090196;28;20385;-66
2022/12/01 09:26:56;;;;;;;;;;;19.10;44.40;;;;;;5089079;28;19924;-63
2022/12/01 09:29:22;;;;;;;;;;;19.10;44.50;;;;;;5093267;28;19924;-66
2022/12/01 09:31:49;;;;;;;;;;;19.00;44.30;;;;;;5091225;28;19924;-63
2022/12/01 09:34:18;;;;;;;;;;;19.10;44.40;;;;;;5094624;28;19920;-63
2022/12/01 09:36:45;;;;;;;;;;;19.10;44.40;;;;;;5087626;28;19923;-66
2022/12/01 09:39:12;;;;;;;;;;;19.10;44.40;;;;;;5095335;28;19928;-64
2022/12/01 09:41:40;;;;;;;;;;;19.10;44.40;;;;;;5112229;28;19931;-64
2022/12/01 09:44:13;;;;;;;;;;;19.10;44.50;;;;;;5094264;28;19920;-63
2022/12/01 09:46:40;;;;;;;;;;;19.10;44.50;;;;;;5086596;28;20009;-64
2022/12/01 09:49:08;;;;;;;;;;;19.10;44.50;;;;;;5106641;28;19920;-64
2022/12/01 09:51:36;;;;;;;;;;;19.10;44.50;;;;;;5081542;28;19921;-62
2022/12/01 09:54:03;;;;;;;;;;;19.10;44.50;;;;;;5088256;28;19924;-63
2022/12/01 09:56:30;;;;;;;;;;;19.10;44.50;;;;;;5083310;28;19956;-63
2022/12/01 09:58:59;;;;;;;;;;;19.10;44.50;;;;;;5109987;28;19958;-64
2022/12/01 10:01:37;;;;;;;;;;;19.10;44.50;;;;;;5087990;28;19973;-66
2022/12/01 10:04:06;;;;;;;;;;;19.10;44.50;;;;;;5088302;28;20018;-68
2022/12/01 10:06:34;;;;;;;;;;;19.10;44.50;;;;;;5095045;28;19920;-63
2022/12/01 10:09:03;;;;;;;;;;;19.10;44.50;;;;;;5083576;28;20281;-62
2022/12/01 10:11:31;;;;;;;;;;;19.10;44.50;;;;;;5094128;28;20004;-64
2022/12/01 10:13:59;;;;;;;;;;;19.10;44.50;;;;;;5094584;28;19919;-63
2022/12/01 10:16:26;;;;;;;;;;;19.10;44.50;;;;;;5093401;28;19919;-66
2022/12/01 10:18:55;;;;;;;;;;;19.10;44.50;;;;;;5088565;28;19920;-64
2022/12/01 10:21:25;;;;;;;;;;;19.10;44.50;;;;;;5093510;28;19924;-64
2022/12/01 10:24:11;;;;;;;;;;;19.10;44.50;;;;;;5092915;28;19965;-69
2022/12/01 10:26:39;;;;;;;;;;;19.10;44.50;;;;;;5089678;28;19927;-64
2022/12/01 10:29:10;;;;;;;;;;;19.10;44.50;;;;;;5093995;28;19986;-63
2022/12/01 10:31:39;;;;;;;;;;;19.10;44.50;;;;;;5080674;28;19973;-65
2022/12/01 10:34:06;;;;;;;;;;;19.10;44.50;;;;;;5088576;28;19945;-64
2022/12/01 10:36:33;;;;;;;;;;;19.10;44.50;;;;;;5089204;28;19920;-64
2022/12/01 10:39:00;;;;;;;;;;;19.10;44.50;;;;;;5080433;28;19924;-63
2022/12/01 10:41:27;;;;;;;;;;;19.10;44.50;;;;;;5094344;28;19976;-67
2022/12/01 10:43:56;;;;;;;;;;;19.10;44.50;;;;;;5109985;28;19932;-65
2022/12/01 10:46:27;;;;;;;;;;;19.10;44.60;;;;;;5106118;28;19923;-66
2022/12/01 10:48:54;;;;;;;;;;;19.10;44.50;;;;;;5094328;28;19924;-63
2022/12/01 10:51:21;;;;;;;;;;;19.10;44.60;;;;;;5094044;28;19959;-66
2022/12/01 10:53:48;;;;;;;;;;;19.10;44.50;;;;;;5080028;28;19927;-64
2022/12/01 10:56:15;;;;;;;;;;;19.10;44.50;;;;;;5093426;28;20212;-64
2022/12/01 10:58:43;;;;;;;;;;;19.10;44.60;;;;;;5086415;28;19964;-64
2022/12/01 11:01:15;;;;;;;;;;;19.10;45.10;;;;;;5085678;28;19920;-64
2022/12/01 11:03:43;;;;;;;;;;;19.10;44.60;;;;;;5102185;28;19924;-65
2022/12/01 11:06:10;;;;;;;;;;;19.10;44.60;;;;;;5097458;28;19973;-64
2022/12/01 11:08:39;;;;;;;;;;;19.10;44.60;;;;;;5078536;28;20027;-67
2022/12/01 11:11:06;;;;;;;;;;;19.10;44.60;;;;;;5087968;28;19924;-65
2022/12/01 11:13:34;;;;;;;;;;;19.10;44.60;;;;;;5088089;28;19950;-64
2022/12/01 11:16:01;;;;;;;;;;;19.10;44.60;;;;;;5093633;28;19924;-63
2022/12/01 11:18:28;;;;;;;;;;;19.10;44.60;;;;;;5091797;28;19924;-67
2022/12/01 11:21:05;;;;;;;;;;;19.10;44.60;;;;;;5084886;28;20297;-64
2022/12/01 11:23:34;;;;;;;;;;;19.10;44.60;;;;;;5089800;28;19920;-64
2022/12/01 11:26:03;;;;;;;;;;;19.10;44.60;;;;;;5090779;28;19980;-64
2022/12/01 11:28:30;;;;;;;;;;;19.10;44.60;;;;;;5083240;28;20105;-64
2022/12/01 11:30:57;;;;;;;;;;;19.10;44.60;;;;;;5092868;28;19919;-64
2022/12/01 11:33:23;;;;;;;;;;;19.10;44.60;;;;;;5090446;28;19947;-64
2022/12/01 11:35:50;;;;;;;;;;;19.10;44.70;;;;;;5101407;28;19928;-64
2022/12/01 11:38:20;;;;;;;;;;;19.10;44.60;;;;;;5110350;28;19965;-63
2022/12/01 11:40:47;;;;;;;;;;;19.10;44.70;;;;;;5093463;28;19947;-64
2022/12/01 11:43:22;;;;;;;;;;;19.10;44.60;;;;;;5110068;28;19920;-64
2022/12/01 11:45:48;;;;;;;;;;;19.10;44.60;;;;;;5089751;28;19946;-64
2022/12/01 11:48:19;;;;;;;;;;;19.10;44.60;;;;;;5081620;28;19923;-64
2022/12/01 11:50:59;;;;;;;;;;;19.10;44.60;;;;;;5097398;28;19927;-65
2022/12/01 11:53:28;;;;;;;;;;;19.10;44.60;;;;;;5077506;28;19928;-64
2022/12/01 11:55:56;;;;;;;;;;;19.10;44.60;;;;;;5085761;28;19919;-63
2022/12/01 11:58:23;;;;;;;;;;;19.10;44.60;;;;;;5073219;28;19924;-64
2022/12/01 12:00:50;;;;;;;;;;;19.10;44.60;;;;;;5076092;28;19931;-64
2022/12/01 12:03:19;;;;;;;;;;;19.10;44.60;;;;;;5086538;28;19980;-63
2022/12/01 12:05:49;;;;;;;;;;;19.10;44.60;;;;;;5103068;28;19919;-64
2022/12/01 12:08:20;;;;;;;;;;;19.10;44.60;;;;;;5102125;28;19921;-65
2022/12/01 12:10:49;;;;;;;;;;;19.10;44.70;;;;;;5087740;28;19945;-62
2022/12/01 12:13:26;;;;;;;;;;;19.10;44.70;;;;;;5074901;28;19920;-63
2022/12/01 12:15:56;;;;;;;;;;;19.10;44.70;;;;;;5081251;28;19943;-64
2022/12/01 12:18:31;;;;;;;;;;;19.10;44.70;;;;;;5081090;28;19920;-64
2022/12/01 12:21:01;;;;;;;;;;;19.10;44.70;;;;;;5083196;28;19920;-65
2022/12/01 12:23:35;;;;;;;;;;;19.10;44.70;;;;;;5107237;28;19945;-65
2022/12/01 12:26:06;;;;;;;;;;;19.10;44.70;;;;;;5092300;28;19978;-65
2022/12/01 12:28:37;;;;;;;;;;;19.10;44.80;;;;;;5097940;28;19927;-65
2022/12/01 12:31:07;;;;;;;;;;;19.10;44.80;;;;;;5098501;28;19924;-66
2022/12/01 12:33:38;;;;;;;;;;;19.10;44.70;;;;;;5080852;28;19923;-64
2022/12/01 12:36:07;;;;;;;;;;;19.10;44.70;;;;;;5076892;28;19920;-63
2022/12/01 12:38:40;;;;;;;;;;;19.10;44.70;;;;;;5099744;28;19922;-63
2022/12/01 12:41:13;;;;;;;;;;;19.10;44.70;;;;;;5086349;28;19924;-66
2022/12/01 12:43:42;;;;;;;;;;;19.10;44.80;;;;;;5108004;28;19935;-63
2022/12/01 12:46:10;;;;;;;;;;;19.10;44.80;;;;;;5107898;28;19972;-65
2022/12/01 12:48:44;;;;;;;;;;;19.10;44.80;;;;;;5089066;28;19920;-63
2022/12/01 12:51:13;;;;;;;;;;;19.10;44.80;;;;;;5097113;28;19924;-62
2022/12/01 12:53:43;;;;;;;;;;;19.10;44.80;;;;;;5079430;28;19930;-63
2022/12/01 12:56:10;;;;;;;;;;;19.10;44.80;;;;;;5083780;28;19920;-62
2022/12/01 12:58:39;;;;;;;;;;;19.10;44.80;;;;;;5083603;28;19927;-65
2022/12/01 13:01:06;;;;;;;;;;;19.10;44.90;;;;;;5098249;28;19920;-63
2022/12/01 13:03:35;;;;;;;;;;;19.10;44.80;;;;;;5098386;28;19923;-65
2022/12/01 13:06:02;;;;;;;;;;;19.10;44.80;;;;;;5088083;28;20422;-65
2022/12/01 13:08:30;;;;;;;;;;;19.10;45.40;;;;;;5089713;28;19951;-64
2022/12/01 13:10:57;;;;;;;;;;;19.10;44.80;;;;;;5094658;28;19927;-65
2022/12/01 13:13:25;;;;;;;;;;;19.10;44.80;;;;;;5078961;28;19920;-67
2022/12/01 13:15:54;;;;;;;;;;;19.20;44.90;;;;;;5105824;28;20419;-63
2022/12/01 13:18:25;;;;;;;;;;;19.10;44.80;;;;;;5084861;28;19939;-66
2022/12/01 13:20:52;;;;;;;;;;;19.10;44.90;;;;;;5080418;28;19950;-65
2022/12/01 13:23:19;;;;;;;;;;;19.10;44.90;;;;;;5081313;28;19920;-64
2022/12/01 13:25:47;;;;;;;;;;;19.10;44.90;;;;;;5099922;28;19920;-64
2022/12/01 13:28:15;;;;;;;;;;;19.10;44.90;;;;;;5086512;28;19920;-64
2022/12/01 13:30:42;;;;;;;;;;;19.10;44.90;;;;;;5076650;28;19930;-64
2022/12/01 13:33:15;;;;;;;;;;;19.10;44.90;;;;;;5081236;28;19943;-64
2022/12/01 13:35:42;;;;;;;;;;;19.10;44.90;;;;;;5077183;28;19924;-64
2022/12/01 13:38:29;;;;;;;;;;;19.10;44.80;;;;;;5083640;28;19928;-65
2022/12/01 13:41:21;;;;;;;;;;;19.10;44.80;;;;;;5090544;28;19927;-63
2022/12/01 13:43:52;;;;;;;;;;;19.10;44.80;;;;;;5075039;28;19935;-65
2022/12/01 13:46:20;;;;;;;;;;;19.10;44.90;;;;;;5096091;28;19920;-63
2022/12/01 13:48:52;;;;;;;;;;;19.10;44.80;;;;;;5084737;28;19924;-63
2022/12/01 13:51:19;;;;;;;;;;;19.20;44.90;;;;;;5109420;28;19926;-64
2022/12/01 13:53:56;;;;;;;;;;;19.10;44.90;;;;;;5094049;28;19931;-63
2022/12/01 13:56:27;;;;;;;;;;;19.10;45.40;;;;;;5107261;28;19997;-63
2022/12/01 13:58:54;;;;;;;;;;;19.10;44.80;;;;;;5083260;28;20230;-62
2022/12/01 14:01:39;;;;;;;;;;;19.10;44.80;;;;;;5080978;28;19932;-63
2022/12/01 14:04:21;;;;;;;;;;;19.10;44.80;;;;;;5105620;28;19989;-66
2022/12/01 14:06:49;;;;;;;;;;;19.10;44.80;;;;;;5102731;27;19927;-63
2022/12/01 14:09:18;;;;;;;;;;;19.10;44.90;;;;;;5083876;28;19927;-64
2022/12/01 14:11:54;;;;;;;;;;;19.10;44.90;;;;;;5087886;28;19919;-64
2022/12/01 14:14:21;;;;;;;;;;;19.10;44.80;;;;;;5101038;28;19977;-63
2022/12/01 14:16:48;;;;;;;;;;;19.10;44.90;;;;;;5081111;28;19928;-63
2022/12/01 14:19:27;;;;;;;;;;;19.10;44.90;;;;;;5100363;28;19928;-63
2022/12/01 14:21:54;;;;;;;;;;;19.10;44.90;;;;;;5081153;28;19973;-63
2022/12/01 14:24:23;;;;;;;;;;;19.10;44.90;;;;;;5084200;28;19981;-63